createdAt,value
2022-09-22T00:01:29.354Z,11.23
2022-09-22T00:04:00.443Z,10.98
2022-09-22T00:06:31.788Z,13.27
2022-09-22T00:09:01.312Z,12.45
2022-09-22T00:11:33.449Z,11.15
2022-09-22T00:14:29.432Z,12.93
2022-09-22T00:17:03.845Z,10.57
2022-09-22T00:25:10.424Z,11.57
2022-09-22T00:27:37.627Z,13.98
2022-09-22T00:30:05.624Z,10.43
2022-09-22T00:32:32.789Z,13.20
2022-09-22T00:34:59.945Z,11.93
2022-09-22T00:37:27.158Z,13.20
2022-09-22T00:39:54.423Z,11.32
2022-09-22T00:42:22.324Z,12.32
2022-09-22T00:44:49.838Z,11.80
2022-09-22T00:47:32.907Z,12.60
2022-09-22T00:50:09.401Z,10.93
2022-09-22T00:53:02.407Z,10.88
2022-09-22T00:55:45.070Z,14.32
2022-09-22T00:58:17.645Z,12.00
2022-09-22T01:00:45.733Z,12.80
2022-09-22T01:03:20.485Z,9.60
2022-09-22T01:05:51.942Z,11.18
2022-09-22T01:08:21.792Z,12.20
2022-09-22T01:10:50.216Z,10.98
2022-09-22T01:13:36.175Z,10.15
2022-09-22T01:16:34.679Z,12.88
2022-09-22T01:19:36.060Z,11.00
2022-09-22T01:22:06.180Z,10.23
2022-09-22T01:24:54.702Z,11.02
2022-09-22T01:28:31.986Z,11.10
2022-09-22T01:32:03.573Z,10.07
2022-09-22T01:34:50.132Z,9.98
2022-09-22T01:37:27.102Z,9.82
2022-09-22T01:40:12.563Z,8.48
2022-09-22T01:42:49.746Z,10.20
2022-09-22T01:45:22.987Z,9.90
2022-09-22T01:48:11.606Z,10.43
2022-09-22T01:50:49.720Z,9.07
2022-09-22T01:53:22.850Z,9.52
2022-09-22T01:55:59.162Z,11.95
2022-09-22T01:58:33.381Z,12.68
2022-09-22T02:01:18.176Z,10.00
2022-09-22T02:03:56.840Z,11.38
2022-09-22T02:06:35.967Z,10.48
2022-09-22T02:09:09.980Z,11.15
2022-09-22T02:11:37.746Z,10.23
2022-09-22T02:14:06.320Z,10.38
2022-09-22T02:16:34.271Z,11.98
2022-09-22T02:19:19.977Z,12.13
2022-09-22T02:21:48.822Z,11.35
2022-09-22T02:24:42.538Z,11.75
2022-09-22T02:27:26.346Z,14.23
2022-09-22T02:30:13.064Z,12.57
2022-09-22T02:32:45.573Z,12.00
2022-09-22T02:35:13.386Z,14.15
2022-09-22T02:37:56.188Z,16.05
2022-09-22T02:40:48.745Z,14.55
2022-09-22T02:43:44.076Z,15.85
2022-09-22T02:46:24.255Z,14.40
2022-09-22T02:49:00.762Z,17.13
2022-09-22T02:51:33.074Z,16.60
2022-09-22T02:54:01.837Z,14.07
2022-09-22T02:56:29.620Z,13.55
2022-09-22T02:58:58.594Z,13.63
2022-09-22T03:01:26.595Z,12.52
2022-09-22T03:03:54.214Z,11.73
2022-09-22T03:06:21.458Z,14.02
2022-09-22T03:08:48.657Z,12.55
2022-09-22T03:11:15.797Z,10.07
2022-09-22T03:13:42.925Z,9.20
2022-09-22T03:16:10.314Z,10.15
2022-09-22T03:18:37.640Z,10.15
2022-09-22T03:21:05.291Z,11.20
2022-09-22T03:23:32.464Z,14.13
2022-09-22T03:25:59.639Z,11.10
2022-09-22T03:28:26.866Z,9.82
2022-09-22T03:30:54.087Z,12.65
2022-09-22T03:33:21.310Z,15.73
2022-09-22T03:35:48.473Z,12.45
2022-09-22T03:38:15.675Z,13.30
2022-09-22T03:40:51.079Z,12.55
2022-09-22T03:43:18.603Z,15.55
2022-09-22T03:45:46.032Z,13.77
2022-09-22T03:48:13.577Z,11.07
2022-09-22T03:50:40.825Z,12.95
2022-09-22T03:53:08.040Z,10.55
2022-09-22T03:55:35.362Z,13.82
2022-09-22T03:58:03.867Z,12.48
2022-09-22T04:00:31.128Z,10.45
2022-09-22T04:02:59.198Z,12.25
2022-09-22T04:05:26.754Z,14.63
2022-09-22T04:07:54.019Z,13.02
2022-09-22T04:10:21.474Z,17.33
2022-09-22T04:12:49.030Z,17.80
2022-09-22T04:15:16.348Z,16.83
2022-09-22T04:17:45.148Z,17.52
2022-09-22T04:20:12.388Z,22.83
2022-09-22T04:22:39.883Z,24.08
2022-09-22T04:25:08.352Z,29.00
2022-09-22T04:27:35.551Z,22.63
2022-09-22T04:30:03.204Z,25.70
2022-09-22T04:32:33.360Z,24.88
2022-09-22T04:35:00.716Z,40.80
2022-09-22T04:37:28.050Z,28.33
2022-09-22T04:39:55.873Z,84.22
2022-09-22T04:42:23.111Z,40.70
2022-09-22T04:44:50.330Z,133.48
2022-09-22T04:47:17.711Z,109.38
2022-09-22T04:49:45.130Z,111.68
2022-09-22T04:52:12.320Z,124.35
2022-09-22T04:54:39.551Z,176.15
2022-09-22T04:57:06.775Z,187.82
2022-09-22T04:59:35.412Z,104.35
2022-09-22T05:02:03.172Z,69.07
2022-09-22T05:04:30.433Z,50.28
2022-09-22T05:06:57.679Z,45.60
2022-09-22T05:09:24.856Z,22.10
2022-09-22T05:11:52.086Z,27.58
2022-09-22T05:14:24.075Z,28.55
2022-09-22T05:16:53.455Z,45.60
2022-09-22T05:19:21.270Z,39.40
2022-09-22T05:21:48.555Z,50.20
2022-09-22T05:24:15.852Z,37.38
2022-09-22T05:26:43.038Z,129.70
2022-09-22T05:29:10.373Z,92.82
2022-09-22T05:31:37.654Z,40.30
2022-09-22T05:34:04.940Z,53.60
2022-09-22T05:36:32.278Z,56.22
2022-09-22T05:38:59.826Z,23.00
2022-09-22T05:41:27.095Z,98.95
2022-09-22T05:43:54.259Z,78.30
2022-09-22T05:46:21.627Z,112.13
2022-09-22T05:48:48.898Z,48.33
2022-09-22T05:51:16.176Z,91.28
2022-09-22T05:53:43.361Z,37.85
2022-09-22T05:56:10.525Z,141.25
2022-09-22T05:58:37.789Z,35.88
2022-09-22T06:01:05.134Z,36.80
2022-09-22T06:03:32.426Z,84.90
2022-09-22T06:05:59.610Z,26.30
2022-09-22T06:08:26.777Z,105.78
2022-09-22T06:10:54.002Z,66.20
2022-09-22T06:13:21.292Z,27.83
2022-09-22T06:15:49.022Z,34.28
2022-09-22T06:18:23.383Z,32.38
2022-09-22T06:20:51.576Z,25.88
2022-09-22T06:23:19.146Z,44.53
2022-09-22T06:25:46.346Z,64.07
2022-09-22T06:28:14.686Z,87.82
2022-09-22T06:30:43.072Z,45.22
2022-09-22T06:33:12.057Z,148.18
2022-09-22T06:35:43.025Z,20.35
2022-09-22T06:38:15.090Z,64.00
2022-09-22T06:40:43.187Z,55.60
2022-09-22T06:43:24.256Z,17.20
2022-09-22T06:45:52.812Z,27.00
2022-09-22T06:48:23.804Z,24.10
2022-09-22T06:50:54.361Z,17.73
2022-09-22T06:53:25.136Z,23.58
2022-09-22T06:55:54.201Z,21.98
2022-09-22T06:58:22.518Z,42.97
2022-09-22T07:00:50.748Z,19.05
2022-09-22T07:03:22.749Z,25.85
2022-09-22T07:06:01.076Z,28.10
2022-09-22T07:08:31.039Z,26.77
2022-09-22T07:11:04.453Z,31.38
2022-09-22T07:13:33.973Z,19.67
2022-09-22T07:16:08.216Z,27.40
2022-09-22T07:21:09.452Z,20.77
2022-09-22T07:23:36.830Z,20.55
2022-09-22T07:26:13.011Z,40.13
2022-09-22T07:28:41.418Z,20.95
2022-09-22T07:31:12.605Z,16.17
2022-09-22T07:33:43.254Z,25.20
2022-09-22T07:36:14.369Z,14.68
2022-09-22T07:38:43.765Z,17.15
2022-09-22T07:41:14.740Z,17.10
2022-09-22T07:43:42.662Z,17.73
2022-09-22T07:46:09.945Z,14.38
2022-09-22T07:48:38.270Z,17.58
2022-09-22T07:51:12.898Z,14.38
2022-09-22T07:53:43.005Z,13.55
2022-09-22T07:56:13.514Z,18.85
2022-09-22T07:58:51.701Z,29.70
2022-09-22T08:01:22.476Z,23.63
2022-09-22T08:03:51.016Z,19.27
2022-09-22T08:06:23.701Z,15.43
2022-09-22T08:08:56.456Z,18.15
2022-09-22T08:11:27.369Z,16.70
2022-09-22T08:14:02.891Z,17.58
2022-09-22T08:16:34.500Z,15.27
2022-09-22T08:19:11.437Z,15.05
2022-09-22T08:21:48.339Z,14.52
2022-09-22T08:24:22.909Z,14.45
2022-09-22T08:26:53.146Z,13.63
2022-09-22T08:29:21.520Z,15.32
2022-09-22T08:31:49.728Z,15.15
2022-09-22T08:34:18.200Z,14.85
2022-09-22T08:36:48.893Z,13.82
2022-09-22T08:39:18.189Z,14.45
2022-09-22T08:41:59.899Z,13.80
2022-09-22T08:44:37.520Z,12.52
2022-09-22T08:47:05.405Z,13.75
2022-09-22T08:50:06.223Z,13.70
2022-09-22T08:52:48.928Z,11.15
2022-09-22T08:55:23.992Z,9.60
2022-09-22T08:58:23.655Z,11.75
2022-09-22T09:01:19.185Z,10.02
2022-09-22T09:04:36.314Z,13.32
2022-09-22T09:07:37.302Z,10.13
2022-09-22T09:10:16.238Z,9.65
2022-09-22T09:13:00.880Z,10.63
2022-09-22T09:15:58.373Z,9.45
2022-09-22T09:18:39.503Z,13.20
2022-09-22T09:21:14.659Z,9.88
2022-09-22T09:29:19.139Z,10.60
2022-09-22T09:31:53.826Z,10.60
2022-09-22T09:34:28.969Z,13.13
2022-09-22T09:37:07.488Z,13.95
2022-09-22T09:39:39.188Z,11.80
2022-09-22T09:42:24.846Z,11.60
2022-09-22T09:44:54.161Z,14.82
2022-09-22T09:47:59.142Z,12.35
2022-09-22T09:53:00.771Z,9.63
2022-09-22T09:55:28.207Z,9.18
2022-09-22T09:58:33.126Z,11.02
2022-09-22T10:01:01.517Z,9.63
2022-09-22T10:03:35.467Z,11.75
2022-09-22T10:06:07.249Z,9.77
2022-09-22T10:08:47.283Z,9.57
2022-09-22T10:11:15.245Z,9.15
2022-09-22T10:13:44.473Z,6.63
2022-09-22T10:16:23.863Z,7.43
2022-09-22T10:19:13.349Z,5.93
2022-09-22T10:21:40.550Z,5.13
2022-09-22T10:24:29.774Z,5.55
2022-09-22T10:26:57.484Z,6.72
2022-09-22T10:29:25.830Z,6.10
2022-09-22T10:32:16.404Z,6.65
2022-09-22T10:34:48.903Z,9.52
2022-09-22T10:37:29.624Z,7.63
2022-09-22T10:40:02.242Z,6.28
2022-09-22T10:42:40.976Z,6.85
2022-09-22T10:45:15.416Z,7.93
2022-09-22T10:48:00.358Z,6.05
2022-09-22T10:50:58.837Z,5.93
2022-09-22T10:54:07.269Z,7.55
2022-09-22T10:56:53.424Z,7.20
2022-09-22T10:59:47.672Z,7.47
2022-09-22T11:02:39.450Z,6.97
2022-09-22T11:05:43.944Z,6.80
2022-09-22T11:08:36.929Z,7.13
2022-09-22T11:11:45.907Z,6.95
2022-09-22T11:14:19.045Z,8.85
2022-09-22T11:17:16.379Z,7.72
2022-09-22T11:20:09.481Z,7.30
2022-09-22T11:23:08.048Z,8.40
2022-09-22T11:26:07.635Z,6.25
2022-09-22T11:29:24.714Z,8.30
2022-09-22T11:32:16.131Z,6.80
2022-09-22T11:35:01.638Z,8.52
2022-09-22T11:37:50.434Z,8.25
2022-09-22T11:40:52.322Z,7.88
2022-09-22T11:43:46.605Z,7.35
2022-09-22T11:46:38.465Z,7.57
2022-09-22T11:49:26.724Z,8.32
2022-09-22T11:52:31.426Z,8.38
2022-09-22T11:55:30.669Z,8.93
2022-09-22T11:58:04.804Z,7.85
2022-09-22T12:00:51.578Z,6.60
2022-09-22T12:03:31.835Z,8.13
2022-09-22T12:06:09.516Z,12.38
2022-09-22T12:08:56.607Z,8.57
2022-09-22T12:11:28.317Z,8.82
2022-09-22T12:13:58.051Z,8.95
2022-09-22T12:16:51.182Z,8.98
2022-09-22T12:19:32.931Z,9.35
2022-09-22T12:22:15.175Z,7.18
2022-09-22T12:24:47.497Z,9.02
2022-09-22T12:27:26.226Z,8.43
2022-09-22T12:30:04.542Z,7.53
2022-09-22T12:32:42.642Z,7.70
2022-09-22T12:35:31.480Z,6.53
2022-09-22T12:38:02.823Z,6.15
2022-09-22T12:40:37.364Z,6.53
2022-09-22T12:43:04.925Z,6.32
2022-09-22T12:45:34.373Z,6.10
2022-09-22T12:48:22.285Z,7.10
2022-09-22T12:50:51.078Z,7.03
2022-09-22T12:53:21.800Z,6.35
2022-09-22T12:55:57.126Z,8.05
2022-09-22T12:58:30.220Z,7.65
2022-09-22T13:01:31.717Z,7.47
2022-09-22T13:04:16.954Z,6.90
2022-09-22T13:06:44.100Z,8.50
2022-09-22T13:09:24.340Z,7.93
2022-09-22T13:12:13.280Z,7.63
2022-09-22T13:15:08.268Z,8.88
2022-09-22T13:17:50.353Z,7.95
2022-09-22T13:20:30.397Z,7.57
2022-09-22T13:23:14.118Z,7.50
2022-09-22T13:25:44.697Z,8.48
2022-09-22T13:28:26.034Z,6.68
2022-09-22T13:31:13.640Z,7.63
2022-09-22T13:33:41.111Z,8.23
2022-09-22T13:36:08.518Z,7.60
2022-09-22T13:38:45.774Z,6.90
2022-09-22T13:41:19.104Z,7.05
2022-09-22T13:44:11.845Z,5.40
2022-09-22T13:46:49.192Z,5.47
2022-09-22T13:49:39.986Z,4.88
2022-09-22T13:52:23.435Z,5.60
2022-09-22T13:54:56.998Z,5.05
2022-09-22T13:57:29.951Z,5.43
2022-09-22T14:00:04.753Z,4.90
2022-09-22T14:02:32.861Z,5.20
2022-09-22T14:05:05.689Z,5.55
2022-09-22T14:07:49.643Z,4.90
2022-09-22T14:10:27.795Z,5.07
2022-09-22T14:12:55.954Z,4.80
2022-09-22T14:15:43.572Z,5.30
2022-09-22T14:18:19.791Z,4.80
2022-09-22T14:20:48.373Z,6.60
2022-09-22T14:23:37.248Z,5.18
2022-09-22T14:26:24.331Z,6.70
2022-09-22T14:28:53.691Z,6.05
2022-09-22T14:31:29.472Z,5.57
2022-09-22T14:33:57.480Z,5.40
2022-09-22T14:36:26.365Z,5.50
2022-09-22T14:39:09.705Z,4.75
2022-09-22T14:41:38.402Z,4.80
2022-09-22T14:44:32.643Z,6.03
2022-09-22T14:47:29.098Z,4.68
2022-09-22T14:50:20.488Z,5.13
2022-09-22T14:52:58.180Z,6.35
2022-09-22T14:55:34.504Z,5.82
2022-09-22T14:58:12.100Z,6.05
2022-09-22T15:01:20.428Z,6.10
2022-09-22T15:04:23.371Z,5.57
2022-09-22T15:06:56.863Z,6.88
2022-09-22T15:09:38.833Z,5.15
2022-09-22T15:12:25.731Z,10.02
2022-09-22T15:15:00.244Z,6.22
2022-09-22T15:17:54.060Z,5.40
2022-09-22T15:20:57.118Z,5.63
2022-09-22T15:23:31.757Z,5.45
2022-09-22T15:26:04.103Z,5.20
2022-09-22T15:28:37.207Z,5.55
2022-09-22T15:31:06.121Z,6.53
2022-09-22T15:33:33.667Z,5.80
2022-09-22T15:36:13.043Z,5.50
2022-09-22T15:38:41.312Z,5.03
2022-09-22T15:41:11.865Z,5.57
2022-09-22T15:43:40.786Z,4.28
2022-09-22T15:46:23.312Z,4.32
2022-09-22T15:48:50.490Z,4.25
2022-09-22T15:51:17.659Z,4.82
2022-09-22T15:53:45.528Z,5.40
2022-09-22T15:56:19.960Z,5.38
2022-09-22T15:58:49.938Z,6.55
2022-09-22T16:01:17.735Z,6.40
2022-09-22T16:03:46.164Z,5.00
2022-09-22T16:06:17.058Z,4.78
2022-09-22T16:08:51.602Z,6.75
2022-09-22T16:11:31.155Z,6.03
2022-09-22T16:14:03.514Z,5.03
2022-09-22T16:16:33.621Z,6.43
2022-09-22T16:19:01.441Z,6.25
2022-09-22T16:21:38.673Z,7.05
2022-09-22T16:24:10.208Z,5.95
2022-09-22T16:26:39.953Z,5.18
2022-09-22T16:29:08.666Z,5.97
2022-09-22T16:31:37.307Z,6.35
2022-09-22T16:34:06.759Z,5.95
2022-09-22T16:36:36.498Z,5.72
2022-09-22T16:39:05.503Z,6.22
2022-09-22T16:41:35.225Z,5.97
2022-09-22T16:44:03.980Z,7.28
2022-09-22T16:46:33.785Z,6.35
2022-09-22T16:49:05.807Z,5.43
2022-09-22T16:51:36.440Z,7.30
2022-09-22T16:54:07.039Z,6.97
2022-09-22T16:56:37.895Z,7.43
2022-09-22T16:59:05.965Z,9.63
2022-09-22T17:01:37.743Z,11.15
2022-09-22T17:04:07.692Z,9.05
2022-09-22T17:06:37.740Z,9.80
2022-09-22T17:09:06.845Z,7.15
2022-09-22T17:11:39.237Z,8.15
2022-09-22T17:14:13.660Z,7.75
2022-09-22T17:16:48.725Z,7.68
2022-09-22T17:19:26.250Z,6.43
2022-09-22T17:21:55.807Z,14.88
2022-09-22T17:24:25.492Z,22.25
2022-09-22T17:26:56.149Z,15.40
2022-09-22T17:29:26.886Z,12.85
2022-09-22T17:32:02.708Z,12.40
2022-09-22T17:34:33.010Z,13.35
2022-09-22T17:37:01.389Z,14.50
2022-09-22T17:39:30.124Z,14.20
2022-09-22T17:41:57.402Z,14.18
2022-09-22T17:44:26.696Z,12.60
2022-09-22T17:47:12.642Z,12.90
2022-09-22T17:49:59.095Z,13.00
2022-09-22T17:52:29.688Z,14.27
2022-09-22T17:55:09.181Z,15.27
2022-09-22T17:57:42.815Z,17.25
2022-09-22T18:00:24.596Z,13.30
2022-09-22T18:02:54.211Z,15.43
2022-09-22T18:05:26.793Z,12.93
2022-09-22T18:07:58.607Z,14.02
2022-09-22T18:10:32.327Z,19.10
2022-09-22T18:13:00.991Z,19.30
2022-09-22T18:15:29.278Z,18.60
2022-09-22T18:17:58.117Z,19.85
2022-09-22T18:20:26.311Z,22.77
2022-09-22T18:22:54.797Z,20.33
2022-09-22T18:25:25.531Z,18.88
2022-09-22T18:27:53.608Z,16.88
2022-09-22T18:30:20.948Z,11.40
2022-09-22T18:32:48.986Z,12.55
2022-09-22T18:35:16.844Z,19.48
2022-09-22T18:37:44.195Z,17.17
2022-09-22T18:40:12.665Z,17.15
2022-09-22T18:42:41.522Z,17.92
2022-09-22T18:45:11.089Z,21.48
2022-09-22T18:47:40.882Z,16.98
2022-09-22T18:50:09.881Z,28.13
2022-09-22T18:52:37.393Z,17.65
2022-09-22T18:55:09.396Z,18.15
2022-09-22T18:57:36.629Z,17.63
2022-09-22T19:00:05.840Z,18.50
2022-09-22T19:02:33.121Z,25.70
2022-09-22T19:05:00.318Z,32.63
2022-09-22T19:07:43.098Z,29.38
2022-09-22T19:10:14.184Z,17.05
2022-09-22T19:12:42.720Z,14.05
2022-09-22T19:15:16.759Z,12.90
2022-09-22T19:17:47.007Z,14.18
2022-09-22T19:20:18.490Z,12.20
2022-09-22T19:22:47.079Z,19.45
2022-09-22T19:25:16.076Z,26.02
2022-09-22T19:27:43.423Z,24.38
2022-09-22T19:30:11.646Z,26.50
2022-09-22T19:32:40.389Z,20.77
2022-09-22T19:35:08.992Z,21.88
2022-09-22T19:37:36.715Z,15.43
2022-09-22T19:40:05.872Z,13.52
2022-09-22T19:42:39.222Z,14.60
2022-09-22T19:47:35.158Z,11.05
2022-09-22T19:50:02.269Z,12.35
2022-09-22T19:52:29.472Z,14.23
2022-09-22T19:54:56.857Z,11.23
2022-09-22T19:57:24.310Z,14.23
2022-09-22T19:59:51.506Z,13.15
2022-09-22T20:02:20.840Z,12.63
2022-09-22T20:04:48.044Z,13.25
2022-09-22T20:07:15.387Z,13.70
2022-09-22T20:09:45.931Z,13.27
2022-09-22T20:15:05.936Z,12.63
2022-09-22T20:17:33.131Z,11.98
2022-09-22T20:20:00.721Z,14.23
2022-09-22T20:22:30.351Z,15.40
2022-09-22T20:25:01.498Z,13.10
2022-09-22T20:27:32.995Z,12.80
2022-09-22T20:30:00.873Z,11.88
2022-09-22T20:32:34.618Z,13.02
2022-09-22T20:35:01.975Z,12.23
2022-09-22T20:37:31.917Z,15.98
2022-09-22T20:40:07.520Z,57.10
2022-09-22T20:42:34.811Z,85.43
2022-09-22T20:45:01.983Z,44.15
2022-09-22T20:47:29.127Z,32.65
2022-09-22T20:49:57.169Z,22.98
2022-09-22T20:52:24.295Z,22.98
2022-09-22T20:54:51.481Z,20.67
2022-09-22T20:57:18.655Z,14.98
2022-09-22T20:59:46.178Z,15.60
2022-09-22T21:02:15.054Z,17.20
2022-09-22T21:04:42.775Z,15.10
2022-09-22T21:07:11.600Z,18.13
2022-09-22T21:09:57.616Z,17.92
2022-09-22T21:12:30.734Z,15.57
2022-09-22T21:14:58.861Z,14.55
2022-09-22T21:17:27.874Z,13.68
2022-09-22T21:19:57.859Z,14.07
2022-09-22T21:22:28.223Z,14.77
2022-09-22T21:24:56.416Z,16.55
2022-09-22T21:27:25.145Z,21.35
2022-09-22T21:29:53.265Z,33.72
2022-09-22T21:32:20.761Z,27.92
2022-09-22T21:34:48.044Z,23.17
2022-09-22T21:37:15.198Z,22.10
2022-09-22T21:39:42.422Z,18.60
2022-09-22T21:42:09.647Z,18.75
2022-09-22T21:44:36.759Z,19.10
2022-09-22T21:47:04.907Z,19.65
2022-09-22T21:49:32.975Z,30.27
2022-09-22T21:52:01.193Z,26.52
2022-09-22T21:54:28.417Z,20.95
2022-09-22T21:56:56.700Z,21.52
2022-09-22T21:59:23.888Z,20.27
2022-09-22T22:01:51.112Z,23.92
2022-09-22T22:04:18.421Z,24.77
2022-09-22T22:06:46.825Z,26.50
2022-09-22T22:09:23.281Z,24.52
2022-09-22T22:11:57.339Z,23.48
2022-09-22T22:14:34.934Z,21.10
2022-09-22T22:17:02.394Z,24.45
2022-09-22T22:19:29.999Z,20.98
2022-09-22T22:21:57.275Z,27.83
2022-09-22T22:24:28.850Z,24.05
2022-09-22T22:27:10.177Z,18.45
2022-09-22T22:29:38.739Z,21.42
2022-09-22T22:32:09.171Z,25.55
2022-09-22T22:34:36.844Z,24.88
2022-09-22T22:37:07.133Z,24.73
2022-09-22T22:39:34.553Z,22.83
2022-09-22T22:42:01.711Z,26.48
2022-09-22T22:44:29.050Z,22.33
2022-09-22T22:46:56.194Z,21.13
2022-09-22T22:49:23.408Z,22.42
2022-09-22T22:51:52.270Z,21.40
2022-09-22T22:54:19.519Z,27.45
2022-09-22T22:56:50.338Z,27.40
2022-09-22T22:59:18.961Z,27.05
2022-09-22T23:01:46.316Z,28.73
2022-09-22T23:04:13.713Z,29.52
2022-09-22T23:06:47.761Z,25.95
2022-09-22T23:09:17.263Z,22.65
2022-09-22T23:11:46.466Z,23.27
2022-09-22T23:14:16.210Z,21.10
2022-09-22T23:16:49.603Z,20.90
2022-09-22T23:19:18.610Z,24.80
2022-09-22T23:21:46.488Z,26.17
2022-09-22T23:24:16.600Z,25.73
2022-09-22T23:26:45.931Z,27.63
2022-09-22T23:29:13.590Z,23.30
2022-09-22T23:31:40.881Z,27.27
2022-09-22T23:34:08.183Z,24.33
2022-09-22T23:36:35.738Z,21.33
2022-09-22T23:39:04.351Z,22.77
2022-09-22T23:41:37.315Z,22.63
2022-09-22T23:44:08.655Z,23.60
2022-09-22T23:46:37.555Z,22.10
2022-09-22T23:49:06.179Z,19.08
2022-09-22T23:51:33.355Z,21.98
2022-09-22T23:54:00.558Z,20.08
2022-09-22T23:56:27.897Z,20.77
2022-09-22T23:58:55.249Z,27.75
